createdAt,value
2023-01-19T00:52:45.744Z,23.57
2023-01-19T00:53:45.699Z,23.63
2023-01-19T00:54:45.667Z,23.64
2023-01-19T00:55:45.604Z,23.62
2023-01-19T00:56:45.579Z,23.64
2023-01-19T00:57:45.532Z,23.68
2023-01-19T00:58:45.467Z,23.64
2023-01-19T00:59:45.424Z,23.64
2023-01-19T01:00:45.419Z,23.63
2023-01-19T01:01:46.540Z,23.67
2023-01-19T01:02:45.406Z,23.66
2023-01-19T01:03:45.250Z,23.69
2023-01-19T01:04:45.227Z,23.64
2023-01-19T01:05:45.192Z,23.61
2023-01-19T01:06:45.128Z,23.59
2023-01-19T01:07:45.102Z,23.54
2023-01-19T01:08:45.080Z,23.50
2023-01-19T01:09:45.024Z,23.47
2023-01-19T01:10:44.964Z,23.43
2023-01-19T01:11:44.936Z,23.35
2023-01-19T01:12:57.307Z,23.36
2023-01-19T01:14:44.809Z,23.33
2023-01-19T01:15:44.775Z,23.26
2023-01-19T01:16:44.765Z,23.21
2023-01-19T01:17:44.699Z,23.10
2023-01-19T01:18:44.673Z,23.05
2023-01-19T01:19:44.632Z,23.03
2023-01-19T01:20:44.613Z,22.92
2023-01-19T01:21:44.566Z,22.93
2023-01-19T01:22:44.529Z,22.94
2023-01-19T01:23:44.471Z,22.93
2023-01-19T01:24:44.426Z,22.94
2023-01-19T01:25:44.401Z,22.92
2023-01-19T01:26:44.342Z,22.86
2023-01-19T01:27:44.307Z,22.78
2023-01-19T01:28:44.301Z,22.80
2023-01-19T01:29:44.227Z,22.77
2023-01-19T01:30:44.215Z,22.77
2023-01-19T01:31:44.163Z,22.75
2023-01-19T01:32:44.111Z,22.72
2023-01-19T01:33:44.076Z,22.75
2023-01-19T01:34:44.032Z,22.74
2023-01-19T01:35:43.997Z,22.69
2023-01-19T01:36:43.951Z,22.68
2023-01-19T01:37:43.918Z,22.66
2023-01-19T01:38:43.879Z,22.65
2023-01-19T01:39:43.836Z,22.62
2023-01-19T01:40:43.788Z,22.54
2023-01-19T01:41:43.753Z,22.54
2023-01-19T01:42:43.715Z,22.63
2023-01-19T01:43:43.660Z,22.60
2023-01-19T01:44:43.610Z,22.60
2023-01-19T01:45:43.665Z,22.69
2023-01-19T01:46:43.533Z,22.68
2023-01-19T01:47:43.465Z,22.69
2023-01-19T01:48:43.413Z,22.71
2023-01-19T01:49:43.388Z,22.77
2023-01-19T01:50:43.336Z,22.71
2023-01-19T01:51:43.310Z,22.71
2023-01-19T01:52:43.274Z,22.73
2023-01-19T01:53:44.201Z,22.87
2023-01-19T01:54:43.157Z,22.88
2023-01-19T01:55:43.134Z,22.88
2023-01-19T01:56:43.067Z,22.92
2023-01-19T01:57:43.025Z,22.98
2023-01-19T01:58:42.968Z,23.03
2023-01-19T01:59:42.927Z,23.08
2023-01-19T02:00:42.901Z,23.08
2023-01-19T02:01:43.005Z,23.16
2023-01-19T02:02:42.809Z,23.14
2023-01-19T02:03:42.741Z,23.20
2023-01-19T02:04:42.693Z,23.20
2023-01-19T02:05:42.646Z,23.23
2023-01-19T02:06:42.605Z,23.23
2023-01-19T02:07:42.559Z,23.26
2023-01-19T02:08:42.532Z,23.32
2023-01-19T02:09:42.484Z,23.28
2023-01-19T02:10:42.446Z,23.30
2023-01-19T02:11:42.408Z,23.35
2023-01-19T02:12:42.364Z,23.39
2023-01-19T02:13:42.329Z,23.36
2023-01-19T02:14:42.275Z,23.42
2023-01-19T02:15:42.229Z,23.45
2023-01-19T02:16:42.257Z,23.45
2023-01-19T02:17:42.131Z,23.43
2023-01-19T02:18:42.147Z,23.43
2023-01-19T02:19:42.058Z,23.46
2023-01-19T02:20:42.012Z,23.49
2023-01-19T02:21:41.955Z,23.44
2023-01-19T02:22:41.923Z,23.50
2023-01-19T02:23:41.879Z,23.52
2023-01-19T02:24:41.836Z,23.47
2023-01-19T02:25:41.787Z,23.50
2023-01-19T02:26:41.746Z,23.47
2023-01-19T02:27:41.701Z,23.50
2023-01-19T02:28:41.660Z,23.50
2023-01-19T02:29:41.608Z,23.50
2023-01-19T02:30:41.616Z,23.49
2023-01-19T02:31:41.561Z,23.47
2023-01-19T02:32:41.488Z,23.52
2023-01-19T02:33:41.452Z,23.53
2023-01-19T02:34:41.407Z,23.54
2023-01-19T02:35:41.349Z,23.53
2023-01-19T02:36:41.325Z,23.54
2023-01-19T02:37:41.271Z,23.56
2023-01-19T02:38:41.219Z,23.61
2023-01-19T02:39:41.180Z,23.57
2023-01-19T02:40:41.135Z,23.58
2023-01-19T02:41:41.089Z,23.63
2023-01-19T02:42:41.112Z,23.60
2023-01-19T02:43:41.017Z,23.64
2023-01-19T02:44:40.956Z,23.67
2023-01-19T02:45:40.962Z,23.63
2023-01-19T02:46:40.890Z,23.68
2023-01-19T02:47:40.832Z,23.61
2023-01-19T02:48:40.796Z,23.68
2023-01-19T02:49:40.751Z,23.65
2023-01-19T02:50:40.717Z,23.67
2023-01-19T02:51:40.675Z,23.64
2023-01-19T02:52:40.630Z,23.65
2023-01-19T02:53:40.598Z,23.68
2023-01-19T02:54:40.563Z,23.68
2023-01-19T02:55:40.525Z,23.72
2023-01-19T02:56:40.479Z,23.69
2023-01-19T02:57:40.431Z,23.72
2023-01-19T02:58:40.405Z,23.68
2023-01-19T02:59:40.361Z,23.67
2023-01-19T03:00:40.335Z,23.69
2023-01-19T03:01:40.348Z,23.72
2023-01-19T03:02:40.250Z,23.65
2023-01-19T03:03:40.191Z,23.65
2023-01-19T03:04:40.142Z,23.68
2023-01-19T03:05:40.097Z,23.63
2023-01-19T03:06:40.062Z,23.63
2023-01-19T03:07:40.005Z,23.59
2023-01-19T03:08:39.967Z,23.56
2023-01-19T03:09:39.927Z,23.56
2023-01-19T03:10:39.884Z,23.48
2023-01-19T03:11:39.836Z,23.43
2023-01-19T03:12:39.804Z,23.40
2023-01-19T03:13:39.756Z,23.33
2023-01-19T03:14:39.728Z,23.27
2023-01-19T03:15:39.728Z,23.23
2023-01-19T03:16:39.703Z,23.10
2023-01-19T03:17:39.654Z,23.12
2023-01-19T03:18:39.577Z,23.07
2023-01-19T03:19:39.532Z,23.03
2023-01-19T03:20:39.475Z,22.99
2023-01-19T03:21:39.438Z,22.97
2023-01-19T03:22:39.398Z,22.94
2023-01-19T03:23:39.366Z,22.93
2023-01-19T03:24:39.323Z,22.90
2023-01-19T03:25:39.277Z,22.76
2023-01-19T03:26:39.241Z,22.79
2023-01-19T03:27:39.193Z,22.75
2023-01-19T03:28:39.147Z,22.78
2023-01-19T03:29:39.113Z,22.78
2023-01-19T03:30:39.115Z,22.69
2023-01-19T03:31:39.011Z,22.69
2023-01-19T03:32:38.976Z,22.73
2023-01-19T03:33:38.933Z,22.67
2023-01-19T05:55:33.284Z,22.68
2023-01-19T05:56:33.250Z,22.66
2023-01-19T05:57:33.214Z,22.63
2023-01-19T05:58:33.183Z,22.62
2023-01-19T05:59:33.129Z,22.62
2023-01-19T06:00:33.082Z,22.60
2023-01-19T06:01:33.047Z,22.57
2023-01-19T06:02:33.010Z,22.57
2023-01-19T06:03:33.012Z,22.57
2023-01-19T06:04:32.929Z,22.56
2023-01-19T06:05:32.886Z,22.48
2023-01-19T06:06:32.858Z,22.48
2023-01-19T06:07:32.814Z,22.51
2023-01-19T06:08:32.767Z,22.41
2023-01-19T06:09:32.731Z,22.41
2023-01-19T06:10:32.733Z,22.41
2023-01-19T06:11:32.647Z,22.45
2023-01-19T06:12:32.656Z,22.47
2023-01-19T06:13:32.568Z,22.41
2023-01-19T06:14:32.531Z,22.42
2023-01-19T06:15:32.488Z,22.48
2023-01-19T06:16:32.497Z,22.44
2023-01-19T06:17:32.407Z,22.42
2023-01-19T06:18:32.357Z,22.45
2023-01-19T06:19:32.319Z,22.41
2023-01-19T06:20:32.265Z,22.40
2023-01-19T06:21:32.225Z,22.39
2023-01-19T06:22:32.188Z,22.39
2023-01-19T06:23:32.132Z,22.42
2023-01-19T06:24:32.096Z,22.36
2023-01-19T06:25:32.055Z,22.38
2023-01-19T06:26:31.999Z,22.35
2023-01-19T06:27:31.994Z,22.34
2023-01-19T06:28:31.927Z,22.33
2023-01-19T06:29:31.887Z,22.34
2023-01-19T06:30:31.857Z,22.40
2023-01-19T06:31:31.807Z,22.29
2023-01-19T06:32:31.759Z,22.33
2023-01-19T06:33:31.681Z,22.34
2023-01-19T06:34:31.643Z,22.29
2023-01-19T06:35:31.596Z,22.34
2023-01-19T06:36:31.611Z,22.34
2023-01-19T06:37:31.516Z,22.34
2023-01-19T06:38:31.471Z,22.35
2023-01-19T06:39:31.455Z,22.39
2023-01-19T06:40:31.395Z,22.38
2023-01-19T06:41:31.359Z,22.35
2023-01-19T06:42:31.325Z,22.38
2023-01-19T06:43:31.273Z,22.41
2023-01-19T06:44:32.197Z,22.38
2023-01-19T06:45:31.228Z,22.40
2023-01-19T06:46:31.139Z,22.45
2023-01-19T06:47:31.111Z,22.46
2023-01-19T06:48:31.052Z,22.45
2023-01-19T06:49:31.006Z,22.37
2023-01-19T06:50:30.973Z,23.27
2023-01-19T06:51:30.908Z,24.58
2023-01-19T06:52:30.870Z,24.20
2023-01-19T06:53:30.818Z,24.39
2023-01-19T06:54:30.755Z,24.98
2023-01-19T06:55:30.712Z,24.98
2023-01-19T06:56:30.648Z,25.27
2023-01-19T06:57:30.640Z,25.40
2023-01-19T06:58:30.565Z,25.52
2023-01-19T06:59:30.689Z,25.93
2023-01-19T07:00:30.511Z,26.06
2023-01-19T07:01:30.548Z,26.24
2023-01-19T07:02:30.516Z,26.53
2023-01-19T07:03:30.394Z,26.90
2023-01-19T07:04:30.279Z,26.65
2023-01-19T07:05:30.215Z,26.68
2023-01-19T07:06:30.162Z,26.94
2023-01-19T07:07:30.138Z,27.20
2023-01-19T07:08:30.078Z,27.35
2023-01-19T07:09:30.005Z,27.34
2023-01-19T07:11:24.797Z,27.53
2023-01-19T07:11:32.282Z,27.70
2023-01-19T07:12:30.089Z,27.94
2023-01-19T07:13:30.037Z,28.07
2023-01-19T07:14:29.990Z,28.35
2023-01-19T07:15:29.931Z,28.29
2023-01-19T07:16:29.914Z,28.56
2023-01-19T07:17:29.864Z,28.68
2023-01-19T07:18:29.790Z,28.61
2023-01-19T07:19:29.732Z,28.69
2023-01-19T07:20:29.693Z,28.94
2023-01-19T07:21:29.627Z,29.04
2023-01-19T07:22:29.570Z,29.14
2023-01-19T07:23:29.525Z,29.38
2023-01-19T07:24:29.464Z,29.15
2023-01-19T07:25:29.427Z,29.29
2023-01-19T07:26:29.361Z,29.33
2023-01-19T07:27:29.307Z,29.30
2023-01-19T07:28:29.343Z,29.44
2023-01-19T07:29:29.191Z,29.77
2023-01-19T07:30:29.269Z,29.78
2023-01-19T07:31:29.181Z,29.63
2023-01-19T07:32:29.049Z,29.76
2023-01-19T07:33:28.991Z,29.60
2023-01-19T07:34:28.932Z,29.63
2023-01-19T07:35:28.894Z,29.23
2023-01-19T07:36:28.846Z,29.71
2023-01-19T07:37:28.776Z,29.58
2023-01-19T07:38:28.743Z,29.67
2023-01-19T07:39:28.677Z,29.67
2023-01-19T07:40:28.648Z,29.67
2023-01-19T07:41:28.601Z,29.39
2023-01-19T07:42:28.533Z,29.55
2023-01-19T07:43:28.497Z,29.37
2023-01-19T07:44:28.429Z,29.61
2023-01-19T07:45:28.433Z,29.73
2023-01-19T07:46:28.328Z,29.13
2023-01-19T07:47:28.273Z,29.19
2023-01-19T07:48:28.234Z,30.47
2023-01-19T07:49:28.171Z,24.00
2023-01-19T07:50:28.138Z,26.55
2023-01-19T07:51:28.095Z,26.17
2023-01-19T07:52:28.040Z,25.84
2023-01-19T07:53:28.008Z,24.79
2023-01-19T07:54:27.974Z,24.77
2023-01-19T07:55:27.930Z,25.73
2023-01-19T07:56:27.918Z,25.77
2023-01-19T07:57:27.844Z,25.89
2023-01-19T07:58:27.827Z,25.88
2023-01-19T07:59:27.748Z,25.46
2023-01-19T08:00:27.709Z,25.98
2023-01-19T08:01:27.839Z,26.12
2023-01-19T08:02:27.625Z,26.26
2023-01-19T08:03:27.594Z,26.30
2023-01-19T08:04:27.582Z,26.19
2023-01-19T08:05:27.461Z,24.57
2023-01-19T08:06:27.413Z,26.28
2023-01-19T08:07:27.381Z,24.64
2023-01-19T08:08:27.325Z,26.23
2023-01-19T08:09:27.269Z,26.30
2023-01-19T08:10:27.235Z,26.13
2023-01-19T08:11:27.185Z,26.30
2023-01-19T08:12:27.119Z,26.30
2023-01-19T08:13:27.081Z,26.30
2023-01-19T08:14:27.051Z,26.48
2023-01-19T08:15:27.078Z,26.57
2023-01-19T08:16:26.929Z,24.33
2023-01-19T08:17:26.884Z,26.18
2023-01-19T08:18:27.244Z,25.96
2023-01-19T08:19:26.798Z,26.18
2023-01-19T08:20:26.756Z,25.17
2023-01-19T08:21:26.702Z,23.11
2023-01-19T08:22:26.671Z,21.81
2023-01-19T08:23:26.621Z,24.50
2023-01-19T08:24:26.569Z,21.34
2023-01-19T08:25:26.526Z,23.13
2023-01-19T08:26:26.472Z,22.29
2023-01-19T08:27:26.438Z,20.28
2023-01-19T08:28:26.396Z,19.97
2023-01-19T08:29:26.359Z,19.89
2023-01-19T08:30:26.330Z,20.98
2023-01-19T08:31:26.380Z,21.80
2023-01-19T08:32:26.289Z,22.27
2023-01-19T08:33:26.190Z,22.31
2023-01-19T08:34:26.158Z,22.55
2023-01-19T08:35:26.097Z,22.81
2023-01-19T08:36:26.063Z,23.53
2023-01-19T08:37:26.755Z,23.37
2023-01-19T08:38:26.034Z,23.55
2023-01-19T08:39:25.932Z,24.20
2023-01-19T08:40:25.904Z,25.78
2023-01-19T08:41:25.859Z,25.92
2023-01-19T08:42:25.800Z,25.99
2023-01-19T08:43:25.767Z,25.76
2023-01-19T08:44:25.735Z,25.79
2023-01-19T08:45:25.681Z,24.52
2023-01-19T08:46:25.661Z,22.31
2023-01-19T08:47:25.631Z,22.98
2023-01-19T08:48:25.554Z,21.83
2023-01-19T08:49:25.514Z,21.24
2023-01-19T08:50:25.481Z,22.42
2023-01-19T08:51:25.444Z,23.12
2023-01-19T08:52:25.403Z,23.38
2023-01-19T08:53:25.354Z,23.41
2023-01-19T08:54:25.313Z,23.44
2023-01-19T08:55:25.276Z,23.43
2023-01-19T08:56:25.229Z,23.59
2023-01-19T08:57:25.181Z,23.55
2023-01-19T08:58:25.136Z,23.57
2023-01-19T08:59:25.095Z,23.66
2023-01-19T09:00:25.050Z,23.68
2023-01-19T09:01:25.120Z,23.66
2023-01-19T09:02:25.110Z,23.71
2023-01-19T09:03:24.952Z,24.21
2023-01-19T09:04:24.893Z,24.07
2023-01-19T09:05:24.846Z,23.72
2023-01-19T09:06:24.863Z,24.45
2023-01-19T09:07:24.715Z,24.49
2023-01-19T09:08:24.668Z,24.54
2023-01-19T09:09:24.639Z,24.33
2023-01-19T09:10:24.558Z,24.40
2023-01-19T09:11:24.519Z,24.46
2023-01-19T09:12:24.460Z,24.44
2023-01-19T09:13:24.421Z,24.57
2023-01-19T09:14:24.363Z,24.58
2023-01-19T09:15:24.320Z,24.68
2023-01-19T09:16:24.299Z,24.58
2023-01-19T09:17:24.235Z,24.61
2023-01-19T09:18:24.157Z,24.60
2023-01-19T09:19:24.114Z,24.57
2023-01-19T09:20:24.055Z,24.49
2023-01-19T09:24:23.879Z,24.29
2023-01-19T10:12:21.821Z,22.64
2023-01-19T10:19:21.489Z,22.24
2023-01-19T10:33:20.785Z,21.87
2023-01-19T10:35:20.692Z,23.07
2023-01-19T10:36:20.648Z,22.63
2023-01-19T10:37:20.606Z,22.44
2023-01-19T10:38:20.545Z,22.59
2023-01-19T10:39:20.542Z,22.68
2023-01-19T10:40:20.445Z,22.83
2023-01-19T10:41:20.420Z,22.76
2023-01-19T10:42:20.361Z,23.04
2023-01-19T10:43:20.270Z,23.39
2023-01-19T10:44:20.227Z,23.82
2023-01-19T10:45:20.191Z,24.13
2023-01-19T10:46:20.227Z,23.66
2023-01-19T10:47:20.167Z,23.91
2023-01-19T10:48:20.034Z,23.15
2023-01-19T10:49:19.971Z,22.55
2023-01-19T10:50:19.952Z,22.51
2023-01-19T10:51:19.925Z,22.39
2023-01-19T10:52:19.818Z,22.72
2023-01-19T10:53:19.779Z,22.97
2023-01-19T10:54:19.719Z,23.20
2023-01-19T10:55:19.672Z,22.42
2023-01-19T10:56:19.644Z,22.29
2023-01-19T10:57:19.641Z,22.14
2023-01-19T10:58:19.513Z,22.11
2023-01-19T10:59:19.467Z,21.91
2023-01-19T11:00:19.493Z,21.96
2023-01-19T11:01:19.506Z,22.23
2023-01-19T11:02:19.540Z,21.70
2023-01-19T11:03:19.349Z,22.44
2023-01-19T11:04:19.288Z,22.27
2023-01-19T11:05:19.188Z,21.82
2023-01-19T11:06:19.139Z,21.78
2023-01-19T11:07:19.082Z,21.45
2023-01-19T11:08:19.049Z,22.05
2023-01-19T11:09:18.979Z,21.78
2023-01-19T11:10:18.951Z,21.79
2023-01-19T11:11:19.799Z,21.60
2023-01-19T13:11:13.401Z,18.09
2023-01-19T13:12:13.377Z,18.05
2023-01-19T13:13:13.312Z,18.11
2023-01-19T13:14:13.271Z,18.08
2023-01-19T13:15:13.226Z,18.02
2023-01-19T13:16:13.265Z,18.10
2023-01-19T13:17:13.144Z,18.10
2023-01-19T13:18:13.093Z,17.99
2023-01-19T13:19:13.046Z,18.07
2023-01-19T13:20:13.065Z,18.05
2023-01-19T13:21:12.964Z,18.01
2023-01-19T13:22:12.921Z,17.99
2023-01-19T13:23:12.881Z,18.01
2023-01-19T13:24:12.834Z,18.05
2023-01-19T13:25:12.793Z,18.07
2023-01-19T13:26:12.749Z,17.98
2023-01-19T13:27:12.705Z,17.98
2023-01-19T13:28:12.679Z,17.93
2023-01-19T13:29:12.628Z,17.95
2023-01-19T13:30:12.661Z,17.95
2023-01-19T13:31:12.675Z,17.92
2023-01-19T13:32:12.458Z,17.95
2023-01-19T13:33:12.422Z,17.99
2023-01-19T13:34:12.375Z,17.95
2023-01-19T13:35:12.318Z,17.90
2023-01-19T13:36:12.290Z,17.92
2023-01-19T13:37:12.232Z,17.86
2023-01-19T13:38:12.186Z,17.89
2023-01-19T13:39:12.139Z,17.89
2023-01-19T13:40:12.114Z,17.96
2023-01-19T13:41:12.064Z,17.89
2023-01-19T13:42:12.011Z,17.84
2023-01-19T13:43:11.961Z,17.85
2023-01-19T13:44:11.923Z,17.84
2023-01-19T13:45:11.893Z,17.87
2023-01-19T13:46:11.858Z,17.94
2023-01-19T13:47:11.792Z,17.81
2023-01-19T13:48:11.763Z,17.87
2023-01-19T13:49:11.717Z,17.91
2023-01-19T13:50:11.723Z,17.90
2023-01-19T13:51:11.638Z,17.84
2023-01-19T13:52:11.584Z,17.91
2023-01-19T13:53:11.700Z,17.93
2023-01-19T13:54:11.502Z,17.84
2023-01-19T13:55:11.438Z,17.90
2023-01-19T13:56:11.420Z,17.88
2023-01-19T13:57:11.365Z,17.87
2023-01-19T13:58:11.342Z,17.85
2023-01-19T13:59:11.302Z,17.88
2023-01-19T14:00:11.366Z,17.97
2023-01-19T14:01:11.272Z,17.91
2023-01-19T14:02:11.205Z,17.94
2023-01-19T14:03:11.155Z,17.91
2023-01-19T14:04:11.067Z,17.94
2023-01-19T14:05:11.013Z,17.84
2023-01-19T14:06:11.026Z,17.91
2023-01-19T14:07:10.947Z,17.90
2023-01-19T14:08:10.932Z,17.87
2023-01-19T14:09:10.846Z,17.91
2023-01-19T14:10:10.843Z,17.93
2023-01-19T14:11:10.758Z,18.00
2023-01-19T14:12:10.741Z,18.00
2023-01-19T14:13:10.700Z,17.97
2023-01-19T14:14:10.662Z,18.00
2023-01-19T14:15:10.589Z,17.93
2023-01-19T14:16:10.587Z,17.99
2023-01-19T14:17:10.510Z,17.96
2023-01-19T14:18:10.482Z,17.97
2023-01-19T14:19:10.416Z,18.00
2023-01-19T14:20:10.425Z,17.99
2023-01-19T14:21:10.331Z,17.96
2023-01-19T14:22:10.287Z,18.01
2023-01-19T14:23:10.244Z,17.97
2023-01-19T14:24:10.208Z,17.97
2023-01-19T14:25:10.160Z,18.06
2023-01-19T14:26:10.123Z,18.01
2023-01-19T14:27:10.080Z,18.12
2023-01-19T14:28:10.047Z,18.03
2023-01-19T14:29:10.021Z,17.99
2023-01-19T14:30:10.001Z,17.96
2023-01-19T14:31:09.949Z,17.94
2023-01-19T14:32:09.901Z,18.06
2023-01-19T14:33:09.851Z,17.98
2023-01-19T14:34:09.819Z,17.98
2023-01-19T14:35:10.246Z,18.06
2023-01-19T14:36:09.733Z,18.07
2023-01-19T14:37:09.689Z,17.98
2023-01-19T14:38:09.665Z,18.01
2023-01-19T14:39:09.619Z,18.07
2023-01-19T14:40:09.597Z,18.07
2023-01-19T14:41:09.529Z,18.03
2023-01-19T14:42:09.503Z,17.98
2023-01-19T14:43:09.447Z,17.98
2023-01-19T14:44:09.421Z,18.12
2023-01-19T14:45:09.843Z,18.06
2023-01-19T14:46:09.358Z,18.01
2023-01-19T14:47:09.321Z,18.01
2023-01-19T14:48:09.261Z,18.04
2023-01-19T14:49:09.230Z,17.95
2023-01-19T14:50:09.262Z,18.04
2023-01-19T14:51:09.146Z,18.01
2023-01-19T14:52:09.093Z,18.04
2023-01-19T14:53:09.077Z,18.09
2023-01-19T14:54:09.016Z,17.99
2023-01-19T14:55:09.357Z,17.95
2023-01-19T14:56:08.939Z,18.01
2023-01-19T14:57:08.917Z,17.95
2023-01-19T15:35:07.700Z,18.12
2023-01-19T15:36:07.291Z,18.15
2023-01-19T15:37:07.255Z,18.05
2023-01-19T15:38:07.210Z,18.06
2023-01-19T15:39:07.169Z,18.06
2023-01-19T15:40:07.148Z,18.17
2023-01-19T15:41:07.112Z,18.04
2023-01-19T15:42:07.064Z,18.12
2023-01-19T15:43:07.038Z,18.01
2023-01-19T15:44:07.000Z,18.14
2023-01-19T15:45:07.574Z,18.09
2023-01-19T15:46:06.931Z,18.05
2023-01-19T15:47:06.878Z,18.08
2023-01-19T15:48:06.842Z,18.05
2023-01-19T15:49:06.787Z,18.06
2023-01-19T15:50:06.736Z,18.08
2023-01-19T15:51:06.721Z,18.03
2023-01-19T15:52:06.674Z,18.06
2023-01-19T15:53:06.641Z,18.08
2023-01-19T15:54:06.584Z,18.05
2023-01-19T15:55:06.620Z,18.05
2023-01-19T15:56:06.508Z,18.08
2023-01-19T15:57:06.458Z,18.11
2023-01-19T15:58:06.433Z,18.18
2023-01-19T15:59:06.392Z,18.11
2023-01-19T16:00:06.358Z,18.09
2023-01-19T16:01:06.418Z,18.14
2023-01-19T16:02:06.491Z,18.03
2023-01-19T16:03:06.251Z,18.14
2023-01-19T16:04:06.248Z,18.30
2023-01-19T16:05:06.190Z,18.36
2023-01-19T16:06:06.130Z,18.17
2023-01-19T16:07:06.119Z,18.30
2023-01-19T16:08:06.075Z,18.34
2023-01-19T16:09:06.031Z,18.36
2023-01-19T16:10:05.989Z,18.24
2023-01-19T16:11:05.956Z,18.21
2023-01-19T16:12:05.929Z,18.12
2023-01-19T16:13:05.886Z,18.42
2023-01-19T16:14:05.872Z,18.28
2023-01-19T16:15:05.822Z,18.11
2023-01-19T16:16:05.836Z,18.27
2023-01-19T16:17:05.761Z,18.34
2023-01-19T16:18:05.745Z,18.33
2023-01-19T16:19:05.697Z,18.30
2023-01-19T16:20:05.661Z,18.33
2023-01-19T16:21:05.633Z,18.42
2023-01-19T16:22:05.621Z,18.24
2023-01-19T16:23:19.338Z,18.25
2023-01-19T16:24:06.520Z,18.33
2023-01-19T16:25:05.480Z,18.49
2023-01-19T16:26:05.452Z,18.22
2023-01-19T16:27:05.410Z,18.22
2023-01-19T16:28:05.379Z,18.15
2023-01-19T16:29:05.343Z,18.21
2023-01-19T16:30:05.299Z,18.24
2023-01-19T16:31:05.267Z,18.34
2023-01-19T16:32:05.217Z,18.23
2023-01-19T16:33:05.191Z,18.36
2023-01-19T16:34:05.151Z,18.29
2023-01-19T16:35:05.118Z,18.40
2023-01-19T16:36:05.075Z,18.36
2023-01-19T16:37:05.044Z,18.44
2023-01-19T16:38:05.010Z,18.46
2023-01-19T16:39:04.990Z,18.44
2023-01-19T16:40:04.944Z,18.34
2023-01-19T16:41:04.908Z,18.39
2023-01-19T16:42:04.880Z,18.39
2023-01-19T16:43:04.846Z,18.39
2023-01-19T16:44:04.814Z,18.44
2023-01-19T16:45:04.832Z,18.39
2023-01-19T16:46:04.788Z,18.46
2023-01-19T16:47:04.715Z,18.44
2023-01-19T16:48:04.679Z,18.58
2023-01-19T16:49:04.633Z,18.52
2023-01-19T16:50:04.606Z,18.46
2023-01-19T16:51:04.565Z,18.58
2023-01-19T16:52:04.522Z,18.59
2023-01-19T16:53:04.496Z,18.52
2023-01-19T16:54:04.450Z,18.51
2023-01-19T16:55:04.416Z,18.70
2023-01-19T16:56:04.390Z,18.66
2023-01-19T16:57:04.353Z,18.60
2023-01-19T16:58:04.318Z,18.72
2023-01-19T16:59:04.287Z,18.51
2023-01-19T17:00:04.266Z,18.44
2023-01-19T17:01:04.296Z,18.47
2023-01-19T17:02:04.377Z,18.62
2023-01-19T17:03:04.219Z,18.68
2023-01-19T17:04:04.103Z,18.60
2023-01-19T17:05:04.107Z,18.67
2023-01-19T17:06:04.036Z,18.78
2023-01-19T17:07:04.010Z,18.71
2023-01-19T17:08:03.966Z,18.68
2023-01-19T17:09:03.933Z,18.68
2023-01-19T17:10:03.894Z,18.75
2023-01-19T17:11:03.873Z,18.65
2023-01-19T17:12:03.836Z,18.80
2023-01-19T17:13:03.787Z,18.71
2023-01-19T17:14:03.772Z,18.62
2023-01-19T17:15:03.732Z,18.80
2023-01-19T17:16:03.686Z,18.77
2023-01-19T17:17:03.742Z,18.81
2023-01-19T17:18:03.634Z,18.72
2023-01-19T17:19:03.614Z,18.77
2023-01-19T17:20:03.566Z,18.70
2023-01-19T17:21:03.518Z,18.78
2023-01-19T17:22:03.503Z,18.84
2023-01-19T17:23:03.473Z,19.05
2023-01-19T17:24:03.427Z,18.75
2023-01-19T17:25:03.414Z,18.78
2023-01-19T17:26:03.385Z,18.99
2023-01-19T17:27:03.385Z,18.78
2023-01-19T17:28:03.325Z,18.91
2023-01-19T17:29:03.324Z,18.70
2023-01-19T17:30:03.287Z,18.80
2023-01-19T17:31:03.399Z,18.81
2023-01-19T17:32:03.228Z,18.81
2023-01-19T17:33:03.199Z,18.77
2023-01-19T17:34:03.171Z,18.87
2023-01-19T17:35:03.190Z,18.84
2023-01-19T17:36:03.116Z,18.86
2023-01-19T17:37:03.390Z,18.87
2023-01-19T17:38:03.052Z,18.60
2023-01-19T17:39:03.024Z,18.47
2023-01-19T17:40:02.995Z,18.71
2023-01-19T17:41:02.959Z,18.77
2023-01-19T17:42:02.927Z,18.84
2023-01-19T17:43:02.905Z,18.91
2023-01-19T17:44:02.893Z,18.78
2023-01-19T17:45:02.885Z,18.72
2023-01-19T17:46:02.811Z,18.81
2023-01-19T17:47:02.766Z,18.78
2023-01-19T17:48:02.734Z,18.81
2023-01-19T17:49:02.710Z,18.87
2023-01-19T17:50:02.668Z,18.81
2023-01-19T17:51:02.637Z,18.82
2023-01-19T17:52:02.613Z,18.94
2023-01-19T17:53:02.562Z,18.88
2023-01-19T17:54:02.513Z,18.91
2023-01-19T17:55:02.496Z,19.06
2023-01-19T17:56:02.447Z,18.79
2023-01-19T17:57:02.418Z,18.98
2023-01-19T17:58:02.386Z,18.84
2023-01-19T17:59:02.358Z,18.69
2023-01-19T18:00:02.319Z,18.51
2023-01-19T18:01:02.369Z,18.64
2023-01-19T18:02:02.298Z,18.97
2023-01-19T18:03:02.343Z,18.73
2023-01-19T18:04:02.224Z,18.72
2023-01-19T18:05:02.180Z,18.79
2023-01-19T18:06:02.139Z,18.48
2023-01-19T18:07:02.132Z,18.27
2023-01-19T18:08:02.068Z,18.48
2023-01-19T18:09:02.039Z,18.55
2023-01-19T18:10:02.041Z,18.76
2023-01-19T18:11:01.986Z,18.85
2023-01-19T18:12:01.956Z,18.75
2023-01-19T18:13:01.922Z,18.75
2023-01-19T18:14:01.861Z,18.46
2023-01-19T18:15:01.824Z,18.42
2023-01-19T18:16:01.821Z,18.75
2023-01-19T18:17:01.758Z,18.75
2023-01-19T18:18:01.733Z,18.77
2023-01-19T18:19:01.689Z,18.80
2023-01-19T18:20:01.651Z,18.75
2023-01-19T18:21:01.625Z,18.55
2023-01-19T18:22:01.598Z,18.61
2023-01-19T18:23:01.580Z,18.62
2023-01-19T18:24:01.539Z,18.64
2023-01-19T18:25:01.496Z,18.58
2023-01-19T18:26:01.445Z,18.69
2023-01-19T18:27:01.431Z,18.69
2023-01-19T18:28:01.366Z,18.61
2023-01-19T18:29:01.343Z,18.31
2023-01-19T18:30:01.318Z,18.34
2023-01-19T18:31:01.325Z,18.67
2023-01-19T18:32:01.240Z,18.76
2023-01-19T18:33:01.187Z,18.64
2023-01-19T18:34:01.161Z,18.64
2023-01-19T18:35:01.121Z,18.71
2023-01-19T18:36:01.098Z,18.65
2023-01-19T18:37:01.045Z,18.77
2023-01-19T18:38:01.014Z,18.56
2023-01-19T18:39:00.988Z,18.62
2023-01-19T18:40:00.948Z,18.74
2023-01-19T18:41:00.909Z,18.77
2023-01-19T18:42:00.872Z,18.37
2023-01-19T18:43:00.847Z,18.55
2023-01-19T18:44:00.811Z,18.62
2023-01-19T18:45:00.783Z,18.83
2023-01-19T18:46:00.773Z,18.64
2023-01-19T18:47:00.712Z,18.68
2023-01-19T18:48:00.684Z,18.68
2023-01-19T18:49:00.650Z,18.70
2023-01-19T18:50:00.613Z,18.67
2023-01-19T18:51:00.588Z,18.83
2023-01-19T18:52:00.535Z,18.76
2023-01-19T18:53:00.497Z,18.79
2023-01-19T18:54:00.469Z,18.77
2023-01-19T18:55:00.441Z,18.65
2023-01-19T18:56:00.425Z,18.67
2023-01-19T18:57:00.369Z,18.80
2023-01-19T18:58:00.351Z,18.65
2023-01-19T18:59:00.293Z,18.28
2023-01-19T19:00:00.259Z,18.56
2023-01-19T19:01:00.334Z,18.68
2023-01-19T19:02:00.207Z,18.64
2023-01-19T19:03:00.161Z,18.71
2023-01-19T19:04:00.164Z,18.66
2023-01-19T19:05:00.111Z,18.53
2023-01-19T19:06:00.116Z,18.29
2023-01-19T19:07:00.028Z,18.34
2023-01-19T19:08:00.006Z,18.49
2023-01-19T19:08:59.987Z,18.70
2023-01-19T19:09:59.925Z,18.71
2023-01-19T19:10:59.897Z,18.84
2023-01-19T19:11:59.853Z,18.66
2023-01-19T19:12:59.825Z,18.66
2023-01-19T19:13:59.781Z,18.65
2023-01-19T19:14:59.744Z,18.80
2023-01-19T19:15:59.742Z,18.74
2023-01-19T19:16:59.670Z,18.71
2023-01-19T19:17:59.647Z,18.70
2023-01-19T19:18:59.613Z,18.65
2023-01-19T19:19:59.572Z,18.68
2023-01-19T19:20:59.531Z,18.61
2023-01-19T19:21:59.494Z,18.72
2023-01-19T19:22:59.459Z,18.71
2023-01-19T19:23:59.429Z,18.90
2023-01-19T19:24:59.378Z,18.74
2023-01-19T19:25:59.342Z,18.59
2023-01-19T19:26:59.312Z,18.32
2023-01-19T19:27:59.274Z,18.75
2023-01-19T19:28:59.250Z,18.68
2023-01-19T19:29:59.218Z,18.56
2023-01-19T19:30:59.246Z,18.74
2023-01-19T19:31:59.146Z,18.66
2023-01-19T19:32:59.116Z,18.53
2023-01-19T19:33:59.087Z,18.29
2023-01-19T19:34:59.041Z,18.23
2023-01-19T19:35:59.005Z,18.58
2023-01-19T19:37:01.102Z,18.71
2023-01-19T19:37:58.971Z,18.77
2023-01-19T19:38:58.917Z,18.71
2023-01-19T20:36:57.020Z,18.48
2023-01-19T20:37:56.962Z,18.42
2023-01-19T20:38:56.935Z,18.37
2023-01-19T20:39:56.892Z,18.11
2023-01-19T20:40:56.847Z,18.10
2023-01-19T20:41:56.813Z,18.39
2023-01-19T20:42:56.813Z,18.47
2023-01-19T20:43:56.746Z,18.54
2023-01-19T20:44:56.708Z,18.51
2023-01-19T20:45:56.706Z,18.42
2023-01-19T20:46:56.655Z,18.32
2023-01-19T20:47:56.612Z,18.11
2023-01-19T20:48:56.569Z,18.48